Latest Weather Observations for Neptune Island

IDS60801

Issued at 3:11 pm CST Wednesday 20 June 2018 (issued every 10 minutes, with the page automatically refreshed every 10 minutes)

About weather observations | Map of weather stations | Latest weather observations for SA | Other Formats
Station Details ID: 018115 Name: NEPTUNE ISLAND Lat: -35.34 Lon: 136.12 Height: 32.0 m
Data from the previous 72 hours. | See also: Recent months at Neptune Island
Date/Time
CST
Temp
°C
App
Temp
°C
Dew
Point
°C
Rel
Hum
%
Delta-T
°C
Wind Press
QNH
hPa
Press
MSL
hPa
Rain since
9am
mm
Dir  Spd
km/h
Gust
km/h
Spd
kts
Gust
kts
20/03:00pm 14.9 - - - - S 24 30 13 16 1023.6 1023.6 0.0
20/02:30pm 14.7 - - - - S 28 35 15 19 1023.5 1023.5 0.0
20/02:00pm 14.5 - - - - SSE 28 33 15 18 1023.4 1023.4 0.0
20/01:30pm 13.9 - - - - S 26 32 14 17 1023.5 1023.5 0.0
20/01:00pm 14.4 - - - - S 24 39 13 21 1023.5 1023.5 0.0
20/12:30pm 13.8 - - - - SSW 33 39 18 21 1023.6 1023.6 0.0
20/12:00pm 14.0 - - - - SW 19 24 10 13 1023.9 1023.9 0.0
20/11:30am 14.2 - - - - WSW 17 20 9 11 1024.1 1024.1 0.0
20/11:00am 14.2 - - - - WSW 9 13 5 7 1023.9 1023.9 0.0
20/10:30am 14.1 - - - - WNW 7 11 4 6 1023.9 1023.9 0.0
20/10:00am 13.3 - - - - NW 9 13 5 7 1024.0 1024.0 0.0
20/09:30am 12.9 - - - - N 13 17 7 9 1023.9 1023.9 0.0
20/09:00am 12.6 - - - - N 17 20 9 11 1023.7 1023.7 0.0
20/08:30am 12.7 - - - - N 15 17 8 9 1023.3 1023.3 0.0
20/08:00am 12.4 - - - - N 17 20 9 11 1023.1 1023.1 0.0
20/07:30am 12.5 - - - - N 20 24 11 13 1022.8 1022.8 0.0
20/07:00am 12.1 - - - - N 22 26 12 14 1022.5 1022.5 0.0
20/06:30am 11.9 - - - - N 22 26 12 14 1022.0 1022.0 0.0
20/06:00am 12.1 - - - - N 26 30 14 16 1021.6 1021.6 0.0
20/05:30am 12.1 - - - - N 24 28 13 15 1021.3 1021.3 0.0
20/05:00am 12.5 - - - - N 28 33 15 18 1021.3 1021.3 0.0
20/04:30am 12.8 - - - - N 26 30 14 16 1020.9 1020.9 0.0
20/04:00am 13.0 - - - - N 28 32 15 17 1021.2 1021.2 0.0
20/03:30am 12.8 - - - - N 26 30 14 16 1021.2 1021.2 0.0
20/03:00am 12.5 - - - - N 28 35 15 19 1021.4 1021.4 0.0
20/02:30am 12.6 - - - - N 30 35 16 19 1021.2 1021.2 0.0
20/02:00am 12.8 - - - - N 26 32 14 17 1021.2 1021.2 0.0
20/01:30am 12.6 - - - - N 30 39 16 21 1021.3 1021.3 0.0
20/01:00am 12.6 - - - - N 30 37 16 20 1021.3 1021.3 0.0
20/12:30am 12.5 - - - - N 35 41 19 22 1021.4 1021.4 0.0
20/12:00am 12.5 - - - - N 37 44 20 24 1021.5 1021.5 0.0
 
Date/Time
CST
Temp
°C
App
Temp
°C
Dew
Point
°C
Rel
Hum
%
Delta-T
°C
Wind Press
QNH
hPa
Press
MSL
hPa
Rain since
9am
mm
Dir  Spd
km/h
Gust
km/h
Spd
kts
Gust
kts
19/11:30pm 12.6 - - - - N 39 46 21 25 1021.8 1021.8 0.0
19/11:00pm 12.7 - - - - N 32 41 17 22 1021.5 1021.5 0.0
19/10:30pm 12.6 - - - - N 39 46 21 25 1021.9 1021.9 0.0
19/10:00pm 12.9 - - - - N 37 46 20 25 1021.6 1021.6 0.0
19/09:30pm 13.0 - - - - N 33 39 18 21 1021.8 1021.8 0.0
19/09:00pm 12.9 - - - - N 30 35 16 19 1021.8 1021.8 0.0
19/08:30pm 12.9 - - - - N 32 37 17 20 1021.7 1021.7 0.0
19/08:00pm 13.1 - - - - N 32 39 17 21 1021.8 1021.8 0.0
19/07:30pm 13.0 - - - - N 35 43 19 23 1021.6 1021.6 0.0
19/07:00pm 13.2 - - - - N 37 44 20 24 1021.4 1021.4 0.0
19/06:30pm 13.0 - - - - N 37 43 20 23 1021.5 1021.5 0.0
19/06:00pm 13.2 - - - - N 32 39 17 21 1021.1 1021.1 0.0
19/05:30pm 13.3 - - - - N 35 43 19 23 1020.9 1020.9 0.0
19/05:00pm 13.4 - - - - N 32 39 17 21 1020.8 1020.8 0.0
19/04:30pm 13.3 - - - - N 35 43 19 23 1020.7 1020.7 0.0
19/04:00pm 13.3 - - - - N 30 39 16 21 1020.7 1020.7 0.0
19/03:30pm 13.2 - - - - N 32 39 17 21 1020.7 1020.7 0.0
19/03:00pm 13.1 - - - - N 35 41 19 22 1021.1 1021.1 0.0
19/02:30pm 13.5 - - - - N 30 35 16 19 1021.2 1021.2 0.0
19/02:00pm 13.4 - - - - N 32 43 17 23 1021.2 1021.2 0.0
19/01:30pm 13.3 - - - - N 35 41 19 22 1021.7 1021.7 0.0
19/01:00pm 13.2 - - - - N 33 44 18 24 1022.1 1022.1 0.0
19/12:30pm 12.7 - - - - N 35 44 19 24 1022.3 1022.3 0.0
19/12:00pm 12.8 - - - - N 39 46 21 25 1023.1 1023.1 0.0
19/11:30am 12.5 - - - - N 39 50 21 27 1023.3 1023.3 0.0
19/11:00am 12.3 - - - - N 39 48 21 26 1023.8 1023.8 0.0
19/10:30am 12.2 - - - - N 43 52 23 28 1023.9 1023.9 0.0
19/10:00am 12.1 - - - - N 46 54 25 29 1024.0 1024.0 0.0
19/09:30am 12.1 - - - - N 44 56 24 30 1024.4 1024.4 0.0
19/09:00am 11.7 - - - - N 46 54 25 29 1023.6 1023.6 0.0
19/08:30am 11.9 - - - - N 43 52 23 28 1023.8 1023.8 0.0
19/08:00am 11.9 - - - - N 44 54 24 29 1023.9 1023.9 0.0
19/07:30am 11.7 - - - - NNE 44 52 24 28 1023.7 1023.7 0.0
19/07:00am 11.8 - - - - NNE 46 54 25 29 1023.8 1023.8 0.0
19/06:30am 11.8 - - - - NNE 44 54 24 29 1023.8 1023.8 0.0
19/06:00am 11.7 - - - - NNE 43 50 23 27 1023.8 1023.8 0.0
19/05:30am 11.6 - - - - N 41 46 22 25 1024.1 1024.1 0.0
19/05:00am 11.6 - - - - NNE 37 46 20 25 1024.3 1024.3 0.0
19/04:30am 11.7 - - - - NNE 39 46 21 25 1024.4 1024.4 0.0
19/04:00am 11.7 - - - - NNE 43 48 23 26 1024.2 1024.2 0.0
19/03:30am 12.3 - - - - NNE 43 50 23 27 1024.8 1024.8 0.0
19/03:00am 12.1 - - - - NNE 41 50 22 27 1025.5 1025.5 0.0
19/02:30am 12.3 - - - - N 37 48 20 26 1025.7 1025.7 0.0
19/02:00am 12.2 - - - - NNE 35 44 19 24 1025.7 1025.7 0.0
19/01:30am 12.4 - - - - NNE 37 44 20 24 1025.9 1025.9 0.0
19/01:00am 12.3 - - - - NNE 35 44 19 24 1026.0 1026.0 0.0
19/12:30am 12.2 - - - - NE 33 41 18 22 1026.5 1026.5 0.0
19/12:00am 12.1 - - - - NNE 33 44 18 24 1027.0 1027.0 0.0
 
Date/Time
CST
Temp
°C
App
Temp
°C
Dew
Point
°C
Rel
Hum
%
Delta-T
°C
Wind Press
QNH
hPa
Press
MSL
hPa
Rain since
9am
mm
Dir  Spd
km/h
Gust
km/h
Spd
kts
Gust
kts
18/11:30pm 12.1 - - - - NNE 37 44 20 24 1026.6 1026.6 0.0
18/11:00pm 12.1 - - - - NE 33 44 18 24 1025.5 1025.5 0.0
18/10:30pm 11.9 - - - - NE 32 44 17 24 1026.2 1026.2 0.0
18/10:00pm 11.7 - - - - NNE 33 44 18 24 1027.4 1027.4 0.0
18/09:30pm 12.0 - - - - NNE 28 39 15 21 1027.9 1027.9 0.0
18/09:00pm 11.9 - - - - NE 24 39 13 21 1028.1 1028.1 0.0
18/08:30pm 11.8 - - - - NE 22 33 12 18 1027.6 1027.6 0.0
18/08:00pm 11.7 - - - - NE 24 43 13 23 1027.4 1027.4 0.0
18/07:30pm 11.9 - - - - NE 24 37 13 20 1026.8 1026.8 0.0
18/07:00pm 11.6 - - - - ENE 24 37 13 20 1026.7 1026.7 0.0
18/06:30pm 11.6 - - - - NE 17 24 9 13 1026.6 1026.6 0.0
18/06:00pm 11.6 - - - - NE 19 26 10 14 1027.1 1027.1 0.0
18/05:30pm 11.5 - - - - ENE 13 26 7 14 1027.4 1027.4 0.0
18/05:00pm 11.7 - - - - ENE 15 22 8 12 1027.8 1027.8 0.0
18/04:30pm 11.9 - - - - NE 13 20 7 11 1028.1 1028.1 0.0
18/04:00pm 11.8 - - - - NNE 17 22 9 12 1028.5 1028.5 0.0
18/03:30pm 12.2 - - - - NNE 15 22 8 12 1028.4 1028.4 0.0
18/03:00pm 12.2 - - - - NNE 22 26 12 14 1028.6 1028.6 0.0
18/02:30pm 12.3 - - - - NNE 15 19 8 10 1028.6 1028.6 0.0
18/02:00pm 12.4 - - - - NNE 15 19 8 10 1029.0 1029.0 0.0
18/01:30pm 12.4 - - - - ENE 9 17 5 9 1029.3 1029.3 0.0
18/01:00pm 12.6 - - - - NE 13 19 7 10 1029.5 1029.5 0.0
18/12:30pm 12.7 - - - - NE 11 17 6 9 1029.8 1029.8 0.0
18/12:00pm 12.7 - - - - NE 13 20 7 11 1030.4 1030.4 0.0
18/11:30am 12.0 - - - - E 17 24 9 13 1030.8 1030.8 0.0
18/11:00am 12.4 - - - - ESE 17 22 9 12 1031.0 1031.0 0.0
18/10:30am 12.0 - - - - E 13 22 7 12 1031.1 1031.1 0.0
18/10:00am 11.9 - - - - E 15 22 8 12 1030.9 1030.9 0.0
18/09:30am 11.7 - - - - ENE 11 15 6 8 1030.9 1030.9 0.0
18/09:00am 11.6 - - - - SSE 9 19 5 10 1031.1 1031.1 0.6
18/08:30am 11.5 - - - - S 11 15 6 8 1030.9 1030.9 0.6
18/08:00am 11.2 - - - - WSW 2 7 1 4 1030.7 1030.7 0.6
18/07:30am 11.3 - - - - N 6 9 3 5 1030.8 1030.8 0.6
18/07:00am 11.3 - - - - ENE 11 19 6 10 1030.6 1030.6 0.6
18/06:30am 11.2 - - - - NE 9 13 5 7 1030.5 1030.5 0.6
18/06:00am 11.2 - - - - E 9 15 5 8 1030.3 1030.3 0.6
18/05:30am 11.1 - - - - ENE 15 20 8 11 1029.8 1029.8 0.6
18/05:00am 11.1 - - - - S 9 20 5 11 1029.8 1029.8 0.6
18/04:30am 11.4 - - - - SSE 17 28 9 15 1029.5 1029.5 0.6
18/04:00am 11.4 - - - - ESE 15 22 8 12 1029.6 1029.6 0.6
18/03:30am 11.6 - - - - SSE 17 24 9 13 1030.0 1030.0 0.6
18/03:00am 11.6 - - - - SSE 17 20 9 11 1030.2 1030.2 0.6
18/02:30am 11.5 - - - - ESE 20 28 11 15 1030.1 1030.1 0.6
18/02:00am 11.6 - - - - SE 17 24 9 13 1030.1 1030.1 0.6
18/01:30am 11.5 - - - - SE 15 20 8 11 1030.2 1030.2 0.6
18/01:00am 11.8 - - - - SSE 17 22 9 12 1030.2 1030.2 0.6
18/12:30am 11.7 - - - - SSE 17 24 9 13 1030.3 1030.3 0.6
18/12:00am 11.0 - - - - SSE 15 20 8 11 1030.5 1030.5 0.6
 
Date/Time
CST
Temp
°C
App
Temp
°C
Dew
Point
°C
Rel
Hum
%
Delta-T
°C
Wind Press
QNH
hPa
Press
MSL
hPa
Rain since
9am
mm
Dir  Spd
km/h
Gust
km/h
Spd
kts
Gust
kts
17/11:30pm 11.6 - - - - S 26 35 14 19 1030.5 1030.5 0.6
17/11:00pm 11.6 - - - - SE 22 28 12 15 1030.6 1030.6 0.6
17/10:30pm 11.5 - - - - S 15 19 8 10 1030.6 1030.6 0.6
17/10:00pm 10.8 - - - - S 33 41 18 22 1030.6 1030.6 0.6
17/09:53pm 10.9 - - - - SSE 28 41 15 22 1030.5 1030.5 0.6
17/09:30pm 10.6 - - - - SSW 15 24 8 13 1030.6 1030.6 0.4
17/09:00pm 12.3 - - - - S 28 35 15 19 1030.4 1030.4 0.2
17/08:30pm 12.4 - - - - S 26 35 14 19 1030.3 1030.3 0.2
17/08:00pm 11.8 - - - - S 22 32 12 17 1030.2 1030.2 0.2
17/07:30pm 12.0 - - - - S 28 35 15 19 1030.1 1030.1 0.2
17/07:00pm 12.1 - - - - S 28 37 15 20 1030.0 1030.0 0.2
17/06:30pm 11.9 - - - - S 26 33 14 18 1029.8 1029.8 0.2
17/06:00pm 11.7 - - - - S 28 37 15 20 1029.9 1029.9 0.2
17/05:30pm 11.7 - - - - S 35 46 19 25 1029.5 1029.5 0.2
17/05:04pm 10.7 - - - - SSW 32 50 17 27 1029.7 1029.7 0.2
17/05:00pm 10.7 - - - - SSW 39 52 21 28 1029.6 1029.6 0.2
17/04:55pm 11.7 - - - - SSW 39 52 21 28 1029.4 1029.4 0.2
17/04:30pm 12.6 - - - - SSW 39 50 21 27 1029.4 1029.4 0.2
17/04:00pm 12.2 - - - - SSW 35 43 19 23 1029.2 1029.2 0.2
17/03:30pm 11.9 - - - - SSW 35 48 19 26 1029.1 1029.1 0.2

Other Formats:

Comma delimited format used in spreadsheet applications
http://www.bom.gov.au/fwo/IDS60801/IDS60801.94804.axf

JavaScript Object Notation format (JSON) in row-major order
http://www.bom.gov.au/fwo/IDS60801/IDS60801.94804.json